DECEMBER 17, 2018

 

METAR SMJP 171200Z VRB02KT 9999 FEW012 26/22 Q1016 NOSIG=

METAR SMZO 171200Z 00000KT 9999 FEW018 27/23 Q1015 NOSIG=

METAR SMNI 171200Z 17003KT 9999 FEW015 SCT030 25/23 Q1015=

METAR SMST 171200Z 00000KT 9999 BKN015 ///// Q////=